Time;durP1;ratioP1;P1;durP2;ratioP2;P2;SDS_P1;SDS_P2;PMS_P1;PMS_P2;Temp;Humidity;BMP_temperature;BMP_pressure;BME280_temperature;BME280_humidity;BME280_pressure;Samples;Min_cycle;Max_cycle;Signal;HPM_P1;HPM_P2
2023/06/10 00:00:15;;;;;;;4.80;4.20;;;;;;;22.20;nan;98922.69;5012441;28;20872;-75
2023/06/10 00:02:42;;;;;;;4.60;3.63;;;;;;;22.18;nan;98913.97;5011941;28;20225;-75
2023/06/10 00:05:09;;;;;;;5.43;4.27;;;;;;;22.16;nan;98921.34;5014648;28;20553;-75
2023/06/10 00:07:38;;;;;;;4.23;3.93;;;;;;;22.08;nan;98924.97;5012678;28;20455;-76
2023/06/10 00:10:06;;;;;;;5.10;4.60;;;;;;;22.00;nan;98919.72;5011631;28;20652;-75
2023/06/10 00:12:36;;;;;;;4.10;3.70;;;;;;;21.87;nan;98926.59;5013520;28;20492;-75
2023/06/10 00:15:06;;;;;;;4.83;3.70;;;;;;;21.74;nan;98922.91;5012230;28;20556;-76
2023/06/10 00:17:32;;;;;;;5.57;4.20;;;;;;;21.55;nan;98927.81;5012384;28;20544;-76
2023/06/10 00:19:58;;;;;;;4.70;4.30;;;;;;;21.40;nan;98929.66;5012640;28;20529;-75
2023/06/10 00:22:24;;;;;;;6.80;4.27;;;;;;;21.23;nan;98926.31;5013068;28;20452;-75
2023/06/10 00:24:50;;;;;;;4.93;4.53;;;;;;;21.10;nan;98926.09;5012677;28;20228;-76
2023/06/10 00:27:16;;;;;;;4.60;4.30;;;;;;;20.99;nan;98928.19;5012171;28;20552;-76
2023/06/10 00:29:41;;;;;;;4.37;3.97;;;;;;;20.96;nan;98925.06;5011895;28;20993;-76
2023/06/10 00:32:07;;;;;;;4.50;4.10;;;;;;;20.91;nan;98925.59;5010925;28;20306;-76
2023/06/10 00:34:34;;;;;;;4.93;4.47;;;;;;;20.88;nan;98922.47;4997608;28;20309;-75
2023/06/10 00:36:59;;;;;;;6.03;5.37;;;;;;;20.86;nan;98936.00;5011728;28;20495;-76
2023/06/10 00:39:24;;;;;;;4.20;3.80;;;;;;;20.83;nan;98927.53;4996739;28;20297;-76
2023/06/10 00:41:50;;;;;;;4.57;4.17;;;;;;;20.75;nan;98923.06;5011949;28;20417;-76
2023/06/10 00:44:16;;;;;;;5.13;4.20;;;;;;;20.72;nan;98934.94;4993075;28;20218;-75
2023/06/10 00:46:42;;;;;;;6.20;4.50;;;;;;;20.73;nan;98933.09;4992305;28;20230;-75
2023/06/10 00:49:08;;;;;;;5.40;4.00;;;;;;;20.78;nan;98936.06;5010585;28;20210;-75
2023/06/10 00:51:34;;;;;;;5.40;4.70;;;;;;;20.85;nan;98925.50;5010864;28;21076;-76
2023/06/10 00:53:59;;;;;;;4.33;3.87;;;;;;;20.91;nan;98922.09;5010506;28;20312;-75
2023/06/10 00:56:25;;;;;;;5.10;4.70;;;;;;;20.97;nan;98929.38;5012019;28;20631;-75
2023/06/10 00:58:51;;;;;;;5.17;4.63;;;;;;;20.99;nan;98922.03;4994268;28;20227;-75
2023/06/10 01:01:16;;;;;;;6.97;4.60;;;;;;;21.01;nan;98933.38;4994721;28;20232;-75
2023/06/10 01:03:42;;;;;;;5.27;4.77;;;;;;;21.02;nan;98928.84;4994657;28;20252;-75
2023/06/10 01:06:37;;;;;;;6.53;5.90;;;;;;;21.03;nan;98935.84;4992075;28;20791;-75
2023/06/10 01:09:13;;;;;;;8.43;5.40;;;;;;;20.86;nan;98936.00;4960287;28;20475;-75
2023/06/10 01:11:47;;;;;;;5.80;5.20;;;;;;;20.73;nan;98935.75;5010179;28;20556;-75
2023/06/10 01:14:14;;;;;;;5.80;4.77;;;;;;;20.71;nan;98946.63;5012995;28;20515;-75
2023/06/10 01:16:40;;;;;;;6.00;5.27;;;;;;;20.68;nan;98932.81;5012518;28;20469;-76
2023/06/10 01:19:07;;;;;;;6.13;5.53;;;;;;;20.61;nan;98945.22;5010854;28;20442;-75
2023/06/10 01:21:33;;;;;;;6.80;5.47;;;;;;;20.58;nan;98951.75;5012124;28;20517;-75
2023/06/10 01:23:58;;;;;;;6.07;5.43;;;;;;;20.53;nan;98952.25;5066361;23;20475;-84
2023/06/10 01:26:32;;;;;;;6.27;4.93;;;;;;;20.47;nan;98955.63;5020312;28;20868;-83
2023/06/10 01:29:04;;;;;;;6.80;4.40;;;;;;;20.44;nan;98958.66;5047905;28;20784;-83
2023/06/10 01:31:43;;;;;;;5.23;4.83;;;;;;;20.45;nan;98954.13;5040203;28;20440;-82
2023/06/10 01:34:12;;;;;;;5.53;5.03;;;;;;;20.43;nan;98962.28;5051526;28;20479;-81
2023/06/10 01:36:40;;;;;;;5.70;5.20;;;;;;;20.41;nan;98964.31;5044715;28;20477;-82
2023/06/10 01:39:08;;;;;;;8.47;5.50;;;;;;;20.40;nan;98962.66;5031657;28;20464;-81
2023/06/10 01:41:35;;;;;;;5.60;5.10;;;;;;;20.43;nan;98959.63;5049782;28;20743;-82
2023/06/10 01:44:00;;;;;;;6.53;5.20;;;;;;;20.42;nan;98965.97;5025244;28;20536;-84
2023/06/10 01:46:26;;;;;;;5.40;4.60;;;;;;;20.40;nan;98959.16;5035826;28;20551;-81
2023/06/10 01:48:51;;;;;;;6.40;5.80;;;;;;;20.29;nan;98966.56;5041768;28;20203;-82
2023/06/10 01:51:17;;;;;;;5.53;5.03;;;;;;;20.25;nan;98967.06;5034137;28;20219;-81
2023/06/10 01:53:43;;;;;;;7.37;6.03;;;;;;;20.19;nan;98970.44;5044043;28;20223;-83
2023/06/10 01:56:08;;;;;;;6.67;5.73;;;;;;;20.16;nan;98968.13;5038808;28;20218;-81
2023/06/10 01:58:33;;;;;;;5.63;5.03;;;;;;;20.11;nan;98971.31;5037630;28;20256;-81
2023/06/10 02:00:59;;;;;;;8.93;5.40;;;;;;;20.10;nan;98970.50;5036277;28;20217;-81
2023/06/10 02:03:24;;;;;;;9.63;5.90;;;;;;;20.13;nan;98973.81;5049934;28;20259;-81
2023/06/10 02:05:50;;;;;;;6.77;5.93;;;;;;;20.10;nan;98969.66;5045081;28;20812;-82
2023/06/10 02:08:15;;;;;;;7.37;5.83;;;;;;;20.08;nan;98969.81;5049022;28;20240;-81
2023/06/10 02:10:41;;;;;;;6.00;5.40;;;;;;;20.10;nan;98967.00;5037800;28;20296;-81
2023/06/10 02:13:06;;;;;;;7.03;5.33;;;;;;;20.14;nan;98976.28;5032174;28;20680;-81
2023/06/10 02:15:32;;;;;;;5.50;5.00;;;;;;;20.15;nan;98971.81;5047431;28;20759;-83
2023/06/10 02:17:59;;;;;;;6.13;5.53;;;;;;;20.10;nan;98967.81;5046907;28;20469;-81
2023/06/10 02:20:24;;;;;;;5.87;5.37;;;;;;;20.06;nan;98971.00;5050522;28;20668;-83
2023/06/10 02:22:50;;;;;;;6.57;5.97;;;;;;;20.02;nan;98967.88;5051603;28;20530;-81
2023/06/10 02:25:15;;;;;;;5.50;5.00;;;;;;;20.02;nan;98973.19;5049198;28;20227;-84
2023/06/10 02:27:41;;;;;;;6.53;5.77;;;;;;;20.03;nan;98972.19;5050977;28;20587;-81
2023/06/10 02:30:09;;;;;;;6.70;6.03;;;;;;;20.04;nan;98983.69;5036228;28;20213;-81
2023/06/10 02:32:34;;;;;;;5.80;5.10;;;;;;;20.01;nan;98981.34;5050682;28;20372;-82
2023/06/10 02:35:01;;;;;;;5.60;5.00;;;;;;;19.99;nan;98986.06;5040688;28;20512;-82
2023/06/10 02:37:28;;;;;;;5.63;5.13;;;;;;;19.99;nan;98978.88;5033043;28;20448;-81
2023/06/10 02:39:54;;;;;;;5.90;5.33;;;;;;;20.00;nan;98985.03;5041494;28;20438;-82
2023/06/10 02:42:20;;;;;;;7.97;5.33;;;;;;;19.98;nan;98982.56;5037560;28;20463;-83
2023/06/10 02:44:46;;;;;;;6.53;5.77;;;;;;;19.95;nan;98990.88;5036678;28;20222;-81
2023/06/10 02:47:20;;;;;;;7.60;6.30;;;;;;;19.92;nan;98980.56;5041076;28;20721;-83
2023/06/10 02:49:46;;;;;;;5.57;5.07;;;;;;;19.88;nan;98981.94;5051443;28;20877;-82
2023/06/10 02:52:12;;;;;;;6.57;4.60;;;;;;;19.85;nan;98979.63;5041582;28;20514;-81
2023/06/10 02:54:37;;;;;;;6.47;5.33;;;;;;;19.84;nan;98980.59;5040676;28;20217;-82
2023/06/10 02:57:06;;;;;;;6.73;5.57;;;;;;;19.82;nan;98985.25;5040477;28;20458;-83
2023/06/10 02:59:31;;;;;;;6.30;5.70;;;;;;;19.79;nan;98989.09;5039679;28;20838;-82
2023/06/10 03:01:57;;;;;;;7.20;5.83;;;;;;;19.76;nan;98986.78;5048343;28;21569;-80
2023/06/10 03:04:25;;;;;;;6.80;6.20;;;;;;;19.73;nan;98986.31;5028139;28;20303;-81
2023/06/10 03:06:58;;;;;;;5.60;5.10;;;;;;;19.71;nan;98991.78;5028565;28;20458;-81
2023/06/10 03:09:29;;;;;;;6.83;6.13;;;;;;;19.71;nan;98996.28;5037835;28;20546;-81
2023/06/10 03:11:56;;;;;;;9.23;6.37;;;;;;;19.69;nan;99003.66;5051524;28;20616;-81
2023/06/10 03:14:23;;;;;;;8.00;6.23;;;;;;;19.63;nan;98999.78;5039237;28;20538;-81
2023/06/10 03:16:48;;;;;;;5.40;5.00;;;;;;;19.53;nan;99005.31;5042168;28;20812;-81
2023/06/10 03:19:14;;;;;;;7.03;6.33;;;;;;;19.44;nan;99006.31;5048436;28;20496;-81
2023/06/10 03:21:44;;;;;;;6.43;5.83;;;;;;;19.36;nan;99009.84;5031178;28;20770;-81
2023/06/10 03:24:12;;;;;;;7.17;6.10;;;;;;;19.31;nan;99019.31;5032530;28;20474;-80
2023/06/10 03:26:38;;;;;;;7.43;6.23;;;;;;;19.20;nan;99016.00;5048358;28;20472;-81
2023/06/10 03:29:05;;;;;;;11.43;7.53;;;;;;;19.18;nan;99014.50;5032714;28;20208;-80
2023/06/10 03:31:31;;;;;;;7.00;6.20;;;;;;;19.13;nan;99014.19;5041775;28;20800;-81
2023/06/10 03:33:58;;;;;;;6.60;5.80;;;;;;;19.03;nan;99014.34;5050166;28;20242;-81
2023/06/10 03:36:24;;;;;;;8.38;7.40;;;;;;;19.00;nan;99009.34;5039656;28;20674;-81
2023/06/10 03:38:51;;;;;;;5.90;5.40;;;;;;;19.01;nan;99013.69;5045204;28;20200;-81
2023/06/10 03:41:17;;;;;;;7.37;5.80;;;;;;;19.05;nan;99015.00;5034487;28;20624;-80
2023/06/10 03:43:44;;;;;;;8.53;5.53;;;;;;;19.07;nan;99015.69;5047585;28;20421;-81
2023/06/10 03:46:11;;;;;;;6.10;5.50;;;;;;;19.08;nan;99019.16;5031043;28;21035;-81
2023/06/10 03:48:39;;;;;;;6.80;6.13;;;;;;;19.12;nan;99013.34;5040320;28;20577;-81
2023/06/10 03:51:05;;;;;;;7.30;6.60;;;;;;;19.18;nan;99023.31;5040164;28;20834;-81
2023/06/10 03:53:31;;;;;;;7.30;5.47;;;;;;;19.19;nan;99024.97;5039931;28;20530;-81
2023/06/10 03:55:57;;;;;;;6.60;6.00;;;;;;;19.20;nan;99025.84;5040757;28;20207;-80
2023/06/10 03:58:25;;;;;;;6.83;5.70;;;;;;;19.19;nan;99032.97;5030727;28;20553;-81
2023/06/10 04:00:51;;;;;;;7.30;6.60;;;;;;;19.18;nan;99033.16;5033349;28;20760;-81
2023/06/10 04:03:17;;;;;;;7.00;6.40;;;;;;;19.18;nan;99028.66;5047059;28;20461;-81
2023/06/10 04:05:46;;;;;;;6.55;5.95;;;;;;;19.22;nan;99034.47;5037849;28;20426;-81
2023/06/10 04:08:12;;;;;;;6.40;5.80;;;;;;;19.22;nan;99029.13;5049148;28;20300;-81
2023/06/10 04:10:37;;;;;;;6.87;6.27;;;;;;;19.21;nan;99030.97;5028982;28;20556;-81
2023/06/10 04:13:03;;;;;;;6.40;5.63;;;;;;;19.18;nan;99020.66;5048788;28;20222;-81
2023/06/10 04:15:34;;;;;;;7.23;6.60;;;;;;;19.16;nan;99035.16;5040252;28;20210;-81
2023/06/10 04:18:05;;;;;;;11.70;7.10;;;;;;;19.13;nan;99038.97;5028416;28;20465;-81
2023/06/10 04:20:30;;;;;;;7.37;6.63;;;;;;;19.11;nan;99035.63;5047001;28;20498;-81
2023/06/10 04:22:56;;;;;;;7.70;6.07;;;;;;;19.09;nan;99042.97;5028997;28;21003;-81
2023/06/10 04:25:22;;;;;;;7.57;6.80;;;;;;;19.04;nan;99039.97;5034421;28;20217;-80
2023/06/10 04:27:49;;;;;;;7.50;6.40;;;;;;;18.98;nan;99045.94;5039438;28;20228;-81
2023/06/10 04:30:15;;;;;;;5.97;5.37;;;;;;;18.94;nan;99049.94;5048609;28;20450;-81
2023/06/10 04:32:41;;;;;;;8.30;5.83;;;;;;;18.90;nan;99061.91;5030061;28;20813;-81
2023/06/10 04:35:15;;;;;;;7.30;6.30;;;;;;;18.92;nan;99063.41;5032160;28;20490;-81
2023/06/10 04:37:42;;;;;;;7.53;6.77;;;;;;;18.93;nan;99067.75;5032628;28;20700;-80
2023/06/10 04:40:09;;;;;;;6.13;5.70;;;;;;;18.87;nan;99072.88;5035004;28;20452;-80
2023/06/10 04:42:35;;;;;;;7.70;6.43;;;;;;;18.88;nan;99077.22;5026829;28;20459;-81
2023/06/10 04:45:02;;;;;;;7.23;6.53;;;;;;;18.99;nan;99074.25;5033513;28;20891;-81
2023/06/10 04:47:28;;;;;;;7.93;6.97;;;;;;;19.26;nan;99074.94;5042550;28;21095;-80
2023/06/10 04:49:53;;;;;;;7.03;6.37;;;;;;;19.60;nan;99080.03;5045359;28;20467;-81
2023/06/10 04:52:19;;;;;;;6.87;5.40;;;;;;;20.00;nan;99073.84;5046078;28;20473;-81
2023/06/10 04:54:45;;;;;;;7.73;6.20;;;;;;;20.51;nan;99076.13;5034575;28;20304;-80
2023/06/10 04:57:11;;;;;;;7.37;6.10;;;;;;;20.94;nan;99071.25;5024685;28;20853;-81
2023/06/10 04:59:38;;;;;;;6.90;6.20;;;;;;;21.30;nan;99068.78;5045260;28;20230;-80
2023/06/10 05:02:05;;;;;;;7.83;5.93;;;;;;;21.72;nan;99070.13;5043601;28;20210;-80
2023/06/10 05:04:31;;;;;;;6.60;5.70;;;;;;;22.18;nan;99077.16;5023738;28;20442;-80
2023/06/10 05:06:56;;;;;;;8.97;7.40;;;;;;;22.51;nan;99072.25;5037557;28;20719;-81
2023/06/10 05:09:22;;;;;;;7.00;6.33;;;;;;;22.88;nan;99071.22;5036509;28;20217;-80
2023/06/10 05:11:47;;;;;;;8.03;6.67;;;;;;;23.33;nan;99077.25;5040876;28;20421;-80
2023/06/10 05:14:12;;;;;;;8.53;7.17;;;;;;;23.71;nan;99078.78;5040400;28;20224;-80
2023/06/10 05:16:38;;;;;;;10.10;6.77;;;;;;;24.00;nan;99069.72;5037283;28;20202;-82
2023/06/10 05:19:04;;;;;;;8.30;6.80;;;;;;;24.37;nan;99081.06;5037844;28;20686;-81
2023/06/10 05:21:29;;;;;;;7.90;7.13;;;;;;;24.78;nan;99067.59;5039070;28;20265;-80
2023/06/10 05:23:55;;;;;;;6.00;5.50;;;;;;;25.15;nan;99073.50;5038358;28;21006;-80
2023/06/10 05:26:21;;;;;;;5.77;5.27;;;;;;;25.54;nan;99074.53;5037505;28;20274;-81
2023/06/10 05:28:47;;;;;;;7.10;6.53;;;;;;;25.85;nan;99073.09;5036084;28;20205;-81
2023/06/10 05:31:12;;;;;;;7.80;7.03;;;;;;;26.08;nan;99072.63;5037615;28;20217;-80
2023/06/10 05:33:38;;;;;;;6.07;5.47;;;;;;;26.40;nan;99066.31;5033799;28;20227;-80
2023/06/10 05:36:04;;;;;;;7.60;6.80;;;;;;;26.70;nan;99066.59;5017605;28;20299;-79
2023/06/10 05:38:29;;;;;;;7.57;6.83;;;;;;;26.59;nan;99067.28;5037996;28;20472;-80
2023/06/10 05:40:56;;;;;;;7.33;5.83;;;;;;;26.38;nan;99073.78;5047507;28;20743;-80
2023/06/10 05:43:22;;;;;;;6.70;6.10;;;;;;;26.09;nan;99068.91;5044696;28;20280;-80
2023/06/10 05:45:48;;;;;;;7.80;7.10;;;;;;;25.89;nan;99074.31;5044361;28;20468;-80
2023/06/10 05:48:13;;;;;;;7.77;6.93;;;;;;;25.94;nan;99077.22;5046455;28;20249;-80
2023/06/10 05:50:42;;;;;;;8.13;6.43;;;;;;;26.24;nan;99077.53;5045983;28;20299;-80
2023/06/10 05:53:14;;;;;;;7.93;6.67;;;;;;;26.46;nan;99068.16;5045631;28;20222;-79
2023/06/10 05:55:43;;;;;;;7.53;6.82;;;;;;;26.77;nan;99068.44;5043767;28;20430;-80
2023/06/10 05:58:09;;;;;;;7.07;6.10;;;;;;;27.11;nan;99061.78;5045029;28;20214;-80
2023/06/10 06:00:35;;;;;;;6.97;6.27;;;;;;;27.41;nan;99072.81;5045096;28;20462;-80
2023/06/10 06:03:00;;;;;;;7.20;6.50;;;;;;;27.75;nan;99059.84;5045815;28;20217;-80
2023/06/10 06:05:26;;;;;;;6.37;5.77;;;;;;;28.24;nan;99058.09;5022481;28;20199;-78
2023/06/10 06:07:51;;;;;;;6.40;5.83;;;;;;;28.57;nan;99057.72;5034670;28;20211;-78
2023/06/10 06:10:18;;;;;;;6.00;5.50;;;;;;;28.83;nan;99053.00;5034273;28;20249;-79
2023/06/10 06:12:43;;;;;;;6.30;5.70;;;;;;;29.11;nan;99057.81;5039233;28;20215;-80
2023/06/10 06:15:10;;;;;;;5.90;5.30;;;;;;;29.42;nan;99053.16;5040687;28;20896;-79
2023/06/10 06:17:36;;;;;;;6.93;6.23;;;;;;;29.75;nan;99045.31;5037548;28;20289;-79
2023/06/10 06:20:02;;;;;;;6.63;6.03;;;;;;;30.10;nan;99041.72;5041114;28;21002;-79
2023/06/10 06:22:28;;;;;;;6.37;5.77;;;;;;;30.40;nan;99046.97;5039743;28;20207;-79
2023/06/10 06:24:53;;;;;;;6.13;5.53;;;;;;;30.76;nan;99044.97;5040089;28;20485;-79
2023/06/10 06:27:18;;;;;;;6.03;5.53;;;;;;;31.08;nan;99048.00;5038316;28;20702;-79
2023/06/10 06:29:44;;;;;;;5.60;5.10;;;;;;;31.31;nan;99043.50;5041966;28;20225;-79
2023/06/10 06:32:09;;;;;;;6.23;5.70;;;;;;;31.26;nan;99046.94;5041627;28;20991;-79
2023/06/10 06:34:34;;;;;;;6.93;5.60;;;;;;;31.36;nan;99042.75;5039362;28;20204;-79
2023/06/10 06:37:01;;;;;;;5.90;5.40;;;;;;;31.41;nan;99043.69;5032388;28;20842;-79
2023/06/10 06:39:29;;;;;;;6.60;5.60;;;;;;;31.53;nan;99043.59;5034588;28;20446;-79
2023/06/10 06:41:54;;;;;;;6.30;5.70;;;;;;;31.57;nan;99041.19;5033711;28;20513;-78
2023/06/10 06:44:34;;;;;;;6.03;5.43;;;;;;;31.70;nan;99044.41;5035063;28;20215;-79
2023/06/10 06:46:59;;;;;;;5.97;5.47;;;;;;;31.62;nan;99038.56;5040149;28;20466;-79
2023/06/10 06:49:25;;;;;;;5.27;4.77;;;;;;;31.52;nan;99047.38;5043559;28;20204;-79
2023/06/10 06:51:50;;;;;;;6.00;5.00;;;;;;;31.48;nan;99052.47;5041557;28;20681;-79
2023/06/10 06:54:15;;;;;;;5.50;5.00;;;;;;;31.52;nan;99050.09;5042876;28;20646;-78
2023/06/10 06:56:41;;;;;;;4.40;4.03;;;;;;;31.72;nan;99052.28;5044198;28;20202;-78
2023/06/10 06:59:06;;;;;;;6.53;5.40;;;;;;;31.89;nan;99060.41;5036662;28;20880;-79
2023/06/10 07:01:34;;;;;;;5.50;5.00;;;;;;;31.94;nan;99060.50;5040092;28;20654;-79
2023/06/10 07:03:59;;;;;;;5.93;5.27;;;;;;;32.05;nan;99051.41;5042979;28;20242;-79
2023/06/10 07:06:25;;;;;;;6.40;5.80;;;;;;;32.06;nan;99053.06;5040588;28;20486;-78
2023/06/10 07:08:51;;;;;;;6.47;5.87;;;;;;;32.14;nan;99049.09;5043260;28;20902;-78
2023/06/10 07:11:17;;;;;;;8.30;5.83;;;;;;;32.14;nan;99054.53;5044641;28;20462;-78
2023/06/10 07:13:43;;;;;;;7.03;6.10;;;;;;;32.18;nan;99044.78;5040174;28;20447;-78
2023/06/10 07:16:08;;;;;;;5.60;5.20;;;;;;;32.02;nan;99051.09;5044351;28;21010;-78
2023/06/10 07:18:33;;;;;;;6.40;5.80;;;;;;;31.88;nan;99040.56;5041573;28;20222;-79
2023/06/10 07:20:59;;;;;;;5.63;5.13;;;;;;;31.74;nan;99042.00;5041783;28;20271;-78
2023/06/10 07:23:24;;;;;;;7.60;5.97;;;;;;;31.75;nan;99038.22;5046714;28;20698;-79
2023/06/10 07:25:50;;;;;;;5.47;4.97;;;;;;;31.75;nan;99041.75;5064967;23;20238;-78
2023/06/10 07:28:15;;;;;;;7.13;5.63;;;;;;;31.94;nan;99038.78;5000053;28;20215;-77
2023/06/10 07:30:41;;;;;;;5.90;5.30;;;;;;;32.30;nan;99034.63;5014958;28;20601;-77
2023/06/10 07:33:07;;;;;;;8.10;6.07;;;;;;;32.72;nan;99038.63;5016041;28;20264;-77
2023/06/10 07:35:33;;;;;;;7.53;5.80;;;;;;;33.00;nan;99027.53;5017972;28;20816;-78
2023/06/10 07:37:58;;;;;;;6.37;5.87;;;;;;;33.17;nan;99030.13;5016310;28;20472;-78
2023/06/10 07:40:24;;;;;;;8.80;6.77;;;;;;;33.18;nan;99026.31;5016354;28;21059;-77
2023/06/10 07:42:49;;;;;;;6.00;5.47;;;;;;;33.08;nan;99036.28;5017123;28;20201;-77
2023/06/10 07:45:15;;;;;;;6.00;5.43;;;;;;;33.14;nan;99041.53;5017159;28;20768;-77
2023/06/10 07:47:40;;;;;;;7.40;5.90;;;;;;;33.16;nan;99035.81;5015914;28;20216;-77
2023/06/10 07:50:06;;;;;;;5.17;4.77;;;;;;;33.05;nan;99040.34;5017178;28;20222;-77
2023/06/10 07:52:31;;;;;;;8.67;6.90;;;;;;;32.97;nan;99040.78;5015474;28;20788;-77
2023/06/10 07:54:57;;;;;;;6.47;5.87;;;;;;;33.03;nan;99040.59;5017028;28;20221;-77
2023/06/10 07:57:22;;;;;;;6.27;5.73;;;;;;;32.97;nan;99038.06;5014704;28;20292;-78
2023/06/10 07:59:48;;;;;;;5.37;4.87;;;;;;;32.75;nan;99038.94;5014813;28;20607;-78
2023/06/10 08:02:14;;;;;;;4.80;4.30;;;;;;;32.67;nan;99036.69;5015523;28;20225;-77
2023/06/10 08:04:39;;;;;;;7.70;5.80;;;;;;;32.79;nan;99045.53;5014553;28;20468;-77
2023/06/10 08:07:05;;;;;;;6.70;6.00;;;;;;;32.91;nan;99037.19;5014742;28;20737;-77
2023/06/10 08:09:30;;;;;;;5.70;5.20;;;;;;;32.97;nan;99043.50;5016420;28;20222;-78
2023/06/10 08:11:55;;;;;;;5.23;4.70;;;;;;;32.89;nan;99043.97;5015020;28;20833;-77
2023/06/10 08:14:21;;;;;;;5.90;5.40;;;;;;;32.71;nan;99045.16;5018121;28;20234;-77
2023/06/10 08:16:47;;;;;;;5.67;4.90;;;;;;;32.52;nan;99044.69;5018007;28;20308;-77
2023/06/10 08:19:12;;;;;;;6.87;5.90;;;;;;;32.31;nan;99052.56;5018430;28;20283;-78
2023/06/10 08:21:39;;;;;;;6.47;5.87;;;;;;;32.02;nan;99051.91;5018198;28;20214;-77
2023/06/10 08:24:09;;;;;;;6.20;5.60;;;;;;;31.65;nan;99040.78;5016816;28;20210;-77
2023/06/10 08:26:34;;;;;;;8.50;6.00;;;;;;;31.42;nan;99042.63;5018245;28;20588;-77
2023/06/10 08:28:59;;;;;;;7.57;6.70;;;;;;;31.35;nan;99041.09;5018499;28;20773;-77
2023/06/10 08:31:25;;;;;;;7.10;6.50;;;;;;;31.26;nan;99044.22;5015837;28;20440;-77
2023/06/10 08:33:50;;;;;;;7.33;6.07;;;;;;;31.19;nan;99040.03;5022022;28;20819;-77
2023/06/10 08:36:16;;;;;;;7.20;6.50;;;;;;;31.24;nan;99046.34;5022134;28;20618;-77
2023/06/10 08:38:41;;;;;;;7.73;7.10;;;;;;;31.06;nan;99043.91;5016812;28;20214;-77
2023/06/10 08:41:09;;;;;;;6.73;6.17;;;;;;;30.91;nan;99041.72;5017321;28;20220;-77
2023/06/10 08:43:47;;;;;;;7.93;7.23;;;;;;;30.99;nan;99045.94;5019740;28;20302;-77
2023/06/10 08:46:14;;;;;;;7.47;6.80;;;;;;;31.14;nan;99039.97;5017677;28;20508;-77
2023/06/10 08:48:43;;;;;;;7.80;7.00;;;;;;;31.10;nan;99036.91;5014723;28;21142;-77
2023/06/10 08:51:10;;;;;;;7.27;6.50;;;;;;;31.11;nan;99035.84;5018380;28;20662;-77
2023/06/10 08:53:37;;;;;;;8.97;8.27;;;;;;;31.21;nan;99029.75;5018677;28;20494;-77
2023/06/10 08:56:05;;;;;;;9.33;8.63;;;;;;;31.25;nan;99033.63;5016151;28;20544;-77
2023/06/10 08:58:33;;;;;;;8.63;7.90;;;;;;;31.19;nan;99030.03;5014161;28;20492;-77
2023/06/10 09:00:59;;;;;;;8.00;7.30;;;;;;;31.23;nan;99030.34;5015660;28;20554;-77
2023/06/10 09:03:25;;;;;;;7.83;7.03;;;;;;;31.28;nan;99025.81;5014927;28;20584;-77
2023/06/10 09:05:51;;;;;;;8.00;7.40;;;;;;;31.44;nan;99023.38;5014855;28;20445;-77
2023/06/10 09:08:17;;;;;;;7.87;7.27;;;;;;;31.58;nan;99021.13;5018583;28;20472;-78
2023/06/10 09:10:43;;;;;;;7.63;7.00;;;;;;;31.74;nan;99007.53;5001358;28;20225;-77
2023/06/10 09:13:08;;;;;;;9.47;8.47;;;;;;;31.88;nan;99013.41;5015265;28;20491;-78
2023/06/10 09:15:34;;;;;;;8.10;7.40;;;;;;;31.90;nan;99018.59;5013811;28;21098;-78
2023/06/10 09:17:59;;;;;;;9.10;8.20;;;;;;;31.74;nan;99009.41;5016475;28;20263;-78
2023/06/10 09:20:25;;;;;;;8.53;7.80;;;;;;;31.58;nan;99008.38;5017588;28;20201;-78
2023/06/10 09:22:51;;;;;;;8.83;8.03;;;;;;;31.59;nan;99017.34;5022451;28;20708;-79
2023/06/10 09:25:16;;;;;;;8.20;7.40;;;;;;;31.60;nan;99019.00;5018794;28;20709;-78
2023/06/10 09:27:48;;;;;;;8.80;8.10;;;;;;;31.57;nan;99009.47;5004645;28;20276;-78
2023/06/10 09:30:28;;;;;;;8.67;7.90;;;;;;;31.59;nan;99009.19;5001173;28;20477;-78
2023/06/10 09:32:56;;;;;;;7.77;7.00;;;;;;;31.64;nan;99003.84;4999032;28;20978;-78
2023/06/10 09:35:22;;;;;;;8.17;7.57;;;;;;;31.72;nan;99008.84;5001058;28;20520;-78
2023/06/10 09:37:51;;;;;;;8.13;7.43;;;;;;;31.93;nan;99005.34;5002070;28;20537;-78
2023/06/10 09:40:17;;;;;;;7.90;7.30;;;;;;;32.09;nan;99000.13;5004806;28;20468;-78
2023/06/10 09:42:42;;;;;;;8.40;7.57;;;;;;;32.18;nan;98998.59;5002975;28;20545;-78
2023/06/10 09:45:08;;;;;;;7.80;7.10;;;;;;;32.23;nan;99004.09;5001017;28;20223;-78
2023/06/10 09:47:33;;;;;;;11.00;7.33;;;;;;;32.31;nan;99003.63;5001423;28;20620;-78
2023/06/10 09:49:59;;;;;;;9.80;9.00;;;;;;;32.47;nan;99001.13;5004913;28;20210;-79
2023/06/10 09:52:27;;;;;;;8.67;7.73;;;;;;;32.70;nan;98992.66;5004504;28;20198;-78
2023/06/10 09:54:54;;;;;;;9.23;8.40;;;;;;;32.79;nan;98991.13;5002209;28;20838;-79
2023/06/10 09:57:21;;;;;;;8.40;7.60;;;;;;;32.80;nan;98992.75;5001962;28;20599;-78
2023/06/10 09:59:47;;;;;;;10.37;9.00;;;;;;;32.74;nan;98993.78;4996927;28;21109;-78
2023/06/10 10:02:16;;;;;;;8.90;8.20;;;;;;;32.66;nan;98996.97;4996950;28;20855;-78
2023/06/10 10:04:42;;;;;;;8.70;7.90;;;;;;;32.71;nan;98988.06;4979186;28;20740;-79
2023/06/10 10:07:09;;;;;;;8.67;7.77;;;;;;;32.84;nan;98995.78;4995992;28;20492;-78
2023/06/10 10:09:38;;;;;;;9.10;8.30;;;;;;;32.91;nan;98990.13;4997174;28;20548;-78
2023/06/10 10:12:12;;;;;;;9.67;8.87;;;;;;;32.98;nan;98991.56;5000669;28;20868;-78
2023/06/10 10:14:42;;;;;;;8.77;8.03;;;;;;;32.98;nan;98986.13;4997506;28;20492;-79
2023/06/10 10:17:10;;;;;;;9.60;8.70;;;;;;;32.94;nan;98986.88;4993653;28;21061;-79
2023/06/10 10:19:57;;;;;;;9.63;8.73;;;;;;;32.91;nan;98992.84;4999466;28;20468;-79
2023/06/10 10:22:29;;;;;;;9.33;8.53;;;;;;;32.87;nan;98986.28;5004470;28;20890;-78
2023/06/10 10:25:04;;;;;;;9.00;8.30;;;;;;;32.91;nan;98984.69;5004272;28;20464;-78
2023/06/10 10:27:44;;;;;;;8.30;7.60;;;;;;;33.07;nan;98980.22;5007545;28;20475;-78
2023/06/10 10:30:13;;;;;;;8.23;7.40;;;;;;;33.24;nan;98981.72;4980988;28;20845;-78
2023/06/10 10:32:45;;;;;;;8.67;8.00;;;;;;;33.29;nan;98975.47;5006546;28;20643;-78
2023/06/10 10:35:18;;;;;;;10.13;9.33;;;;;;;33.35;nan;98982.63;5006986;28;20478;-78
2023/06/10 10:37:44;;;;;;;7.83;7.13;;;;;;;33.39;nan;98978.28;5007474;28;20468;-78
2023/06/10 10:40:11;;;;;;;8.10;7.30;;;;;;;33.30;nan;98979.00;4979908;28;20490;-78
2023/06/10 10:42:37;;;;;;;7.87;7.27;;;;;;;33.23;nan;98979.25;5003713;28;20565;-78
2023/06/10 10:45:03;;;;;;;8.77;7.90;;;;;;;33.20;nan;98982.50;5003613;28;20475;-78
2023/06/10 10:47:30;;;;;;;15.97;9.43;;;;;;;33.13;nan;98973.72;5004730;28;20949;-78
2023/06/10 10:49:59;;;;;;;8.57;7.77;;;;;;;33.21;nan;98973.25;5005978;28;20468;-78
2023/06/10 10:52:25;;;;;;;8.00;7.40;;;;;;;33.33;nan;98967.63;5007696;28;20458;-78
2023/06/10 10:54:53;;;;;;;6.90;6.27;;;;;;;33.49;nan;98972.09;5002505;28;20518;-78
2023/06/10 10:57:19;;;;;;;8.27;7.47;;;;;;;33.66;nan;98967.31;5004367;28;20475;-78
2023/06/10 11:00:01;;;;;;;6.80;6.20;;;;;;;33.75;nan;98967.59;4997159;28;20992;-78
2023/06/10 11:02:44;;;;;;;7.80;7.10;;;;;;;33.70;nan;98967.56;4974567;28;20476;-78
2023/06/10 11:05:14;;;;;;;7.57;6.77;;;;;;;33.67;nan;98968.94;5002982;28;20474;-78
2023/06/10 11:07:39;;;;;;;7.30;6.77;;;;;;;33.74;nan;98963.25;4997636;28;20590;-78
2023/06/10 11:10:12;;;;;;;8.23;7.53;;;;;;;33.74;nan;98962.44;4998827;28;20843;-79
2023/06/10 11:12:53;;;;;;;8.23;7.43;;;;;;;33.70;nan;98962.13;5001725;28;20243;-78
2023/06/10 11:15:27;;;;;;;7.87;7.13;;;;;;;33.57;nan;98957.19;5004085;28;20492;-79
2023/06/10 11:18:20;;;;;;;7.07;6.47;;;;;;;33.42;nan;98955.97;5008263;28;20475;-79
2023/06/10 11:20:51;;;;;;;8.30;7.50;;;;;;;33.41;nan;98956.25;5004009;28;20566;-79
2023/06/10 11:23:37;;;;;;;8.30;7.60;;;;;;;33.41;nan;98950.81;5008497;28;20543;-79
2023/06/10 11:26:31;;;;;;;8.70;7.87;;;;;;;33.19;nan;98957.19;5001308;28;20620;-78
2023/06/10 11:28:56;;;;;;;9.83;7.47;;;;;;;32.94;nan;98951.50;5006087;28;20472;-78
2023/06/10 11:31:30;;;;;;;10.50;7.47;;;;;;;32.89;nan;98949.56;5001286;28;20486;-79
2023/06/10 11:34:04;;;;;;;8.77;7.90;;;;;;;32.88;nan;98950.66;5002382;28;20236;-78
2023/06/10 11:36:31;;;;;;;7.90;7.20;;;;;;;32.90;nan;98947.69;5001639;28;20491;-79
2023/06/10 11:39:03;;;;;;;7.57;6.60;;;;;;;32.93;nan;98942.53;5000676;28;20992;-79
2023/06/10 11:41:30;;;;;;;6.70;6.03;;;;;;;32.98;nan;98939.06;5000631;28;20564;-78
2023/06/10 11:44:00;;;;;;;6.50;5.97;;;;;;;33.01;nan;98936.66;5003360;28;20475;-79
2023/06/10 11:46:27;;;;;;;7.50;6.90;;;;;;;33.02;nan;98934.75;4999081;28;20480;-79
2023/06/10 11:48:57;;;;;;;7.47;6.87;;;;;;;33.07;nan;98920.38;5002959;28;20460;-78
2023/06/10 11:51:28;;;;;;;7.67;6.97;;;;;;;32.99;nan;98929.78;4981404;28;20553;-79